createdAt,value
2023-01-19T00:00:25.839Z,98940.00
2023-01-19T00:03:28.368Z,98931.34
2023-01-19T00:06:31.539Z,98932.50
2023-01-19T00:09:34.008Z,98928.34
2023-01-19T00:12:36.583Z,98899.03
2023-01-19T00:15:39.257Z,98929.53
2023-01-19T00:18:41.661Z,98933.28
2023-01-19T00:21:44.338Z,98915.97
2023-01-19T00:24:46.740Z,98909.56
2023-01-19T00:27:49.446Z,98920.25
2023-01-19T00:30:52.313Z,98916.31
2023-01-19T00:33:54.688Z,98919.38
2023-01-19T00:36:57.126Z,98911.09
2023-01-19T00:39:59.592Z,98913.75
2023-01-19T00:43:03.280Z,98853.66
2023-01-19T00:46:06.097Z,98871.19
2023-01-19T00:49:08.484Z,98875.34
2023-01-19T00:52:10.997Z,98888.47
2023-01-19T00:55:14.615Z,98861.19
2023-01-19T00:58:17.106Z,98871.66
2023-01-19T01:01:19.801Z,98842.13
2023-01-19T01:04:22.375Z,98872.31
2023-01-19T01:07:24.901Z,98859.44
2023-01-19T01:10:29.351Z,98854.72
2023-01-19T01:13:32.121Z,98838.50
2023-01-19T01:16:34.966Z,98813.78
2023-01-19T01:19:38.534Z,98839.00
2023-01-19T01:22:45.191Z,98849.78
2023-01-19T01:25:47.801Z,98836.72
2023-01-19T01:28:50.748Z,98818.16
2023-01-19T01:31:53.449Z,98820.84
2023-01-19T01:34:55.860Z,98782.72
2023-01-19T01:37:58.992Z,98765.94
2023-01-19T01:41:01.379Z,98792.53
2023-01-19T01:44:08.291Z,98805.72
2023-01-19T01:47:10.980Z,98787.59
2023-01-19T01:50:21.052Z,98806.88
2023-01-19T01:53:23.469Z,98765.94
2023-01-19T01:56:34.438Z,98761.72
2023-01-19T01:59:41.292Z,98744.34
2023-01-19T02:02:56.967Z,98730.94
2023-01-19T02:06:01.902Z,98735.72
2023-01-19T02:09:28.983Z,98725.97
2023-01-19T02:12:50.587Z,98727.41
2023-01-19T02:15:55.722Z,98724.44
2023-01-19T02:18:58.308Z,98729.34
2023-01-19T02:22:20.316Z,98731.63
2023-01-19T02:25:23.235Z,98750.63
2023-01-19T02:28:27.935Z,98737.75
2023-01-19T02:31:32.001Z,98726.19
2023-01-19T02:34:35.464Z,98693.06
2023-01-19T02:37:40.348Z,98733.03
2023-01-19T02:40:44.347Z,98716.34
2023-01-19T02:43:49.238Z,98744.22
2023-01-19T02:46:54.408Z,98761.38
2023-01-19T02:49:58.305Z,98733.16
2023-01-19T02:53:21.770Z,98764.00
2023-01-19T02:56:40.231Z,98763.13
2023-01-19T03:00:23.485Z,98772.03
2023-01-19T03:03:42.965Z,98776.28
2023-01-19T03:07:11.017Z,98763.47
2023-01-19T03:10:38.972Z,98760.72
2023-01-19T03:14:03.956Z,98753.31
2023-01-19T03:17:08.051Z,98741.41
2023-01-19T03:20:14.015Z,98697.19
2023-01-19T03:23:18.936Z,98732.34
2023-01-19T03:26:26.934Z,98735.00
2023-01-19T03:29:34.832Z,98710.81
2023-01-19T03:32:49.812Z,98743.38
2023-01-19T03:35:57.663Z,98747.31
2023-01-19T03:39:04.268Z,98716.44
2023-01-19T03:42:12.032Z,98738.41
2023-01-19T03:45:15.208Z,98713.47
2023-01-19T03:48:17.628Z,98690.38
2023-01-19T03:51:21.809Z,98747.06
2023-01-19T03:54:24.397Z,98742.94
2023-01-19T03:57:27.168Z,98766.53
2023-01-19T04:00:29.987Z,98740.34
2023-01-19T04:03:32.456Z,98782.31
2023-01-19T04:06:35.309Z,98749.81
2023-01-19T04:09:37.843Z,98766.63
2023-01-19T04:12:40.320Z,98733.91
2023-01-19T04:15:42.709Z,98734.81
2023-01-19T04:18:45.133Z,98703.31
2023-01-19T04:21:50.919Z,98706.66
2023-01-19T04:24:53.308Z,98675.59
2023-01-19T04:27:58.346Z,98683.31
2023-01-19T04:31:01.169Z,98649.03
2023-01-19T04:34:04.108Z,98682.09
2023-01-19T04:37:08.556Z,98715.44
2023-01-19T04:40:11.584Z,98678.03
2023-01-19T04:43:14.345Z,98706.34
2023-01-19T04:46:16.779Z,98716.63
2023-01-19T04:49:19.179Z,98735.09
2023-01-19T04:52:21.496Z,98684.06
2023-01-19T04:55:23.839Z,98709.75
2023-01-19T04:58:26.713Z,98732.38
2023-01-19T05:01:29.437Z,98725.00
2023-01-19T05:04:31.992Z,98732.69
2023-01-19T05:07:35.296Z,98707.63
2023-01-19T05:10:37.710Z,98734.59
2023-01-19T05:13:40.060Z,98690.72
2023-01-19T05:16:42.483Z,98702.16
2023-01-19T05:19:44.858Z,98726.84
2023-01-19T05:22:51.250Z,98716.41
2023-01-19T05:25:56.361Z,98716.13
2023-01-19T05:28:59.009Z,98733.84
2023-01-19T05:32:01.771Z,98728.97
2023-01-19T05:35:04.413Z,98723.69
2023-01-19T05:38:06.859Z,98713.09
2023-01-19T05:41:09.280Z,98743.06
2023-01-19T05:44:12.488Z,98737.31
2023-01-19T05:47:14.947Z,98673.84
2023-01-19T05:50:17.324Z,98695.13
2023-01-19T05:53:19.727Z,98713.63
2023-01-19T05:56:22.068Z,98695.34
2023-01-19T05:59:24.466Z,98703.41
2023-01-19T06:02:30.103Z,98733.53
2023-01-19T06:05:32.769Z,98732.88
2023-01-19T06:08:35.450Z,98712.44
2023-01-19T06:11:37.864Z,98745.78
2023-01-19T06:14:40.846Z,98741.94
2023-01-19T06:17:43.230Z,98751.03
2023-01-19T06:20:45.844Z,98748.75
2023-01-19T06:23:48.230Z,98720.81
2023-01-19T06:26:51.300Z,98752.25
2023-01-19T06:29:53.856Z,98765.50
2023-01-19T06:32:56.323Z,98749.28
2023-01-19T06:35:58.859Z,98769.91
2023-01-19T06:39:05.183Z,98776.34
2023-01-19T06:42:09.876Z,98757.13
2023-01-19T06:45:12.273Z,98762.00
2023-01-19T06:48:14.739Z,98777.09
2023-01-19T06:51:17.369Z,98764.97
2023-01-19T06:54:20.216Z,98785.09
2023-01-19T06:57:23.065Z,98775.72
2023-01-19T07:00:26.003Z,98771.78
2023-01-19T07:03:28.965Z,98744.50
2023-01-19T07:06:31.522Z,98744.53
2023-01-19T07:09:33.972Z,98777.25
2023-01-19T07:12:36.359Z,98756.78
2023-01-19T07:15:39.136Z,98766.41
2023-01-19T07:18:41.566Z,98785.22
2023-01-19T07:21:43.948Z,98788.53
2023-01-19T07:24:46.665Z,98779.06
2023-01-19T07:27:49.087Z,98809.22
2023-01-19T07:30:53.495Z,98789.72
2023-01-19T07:33:56.204Z,98780.44
2023-01-19T07:36:58.762Z,98810.88
2023-01-19T07:40:01.656Z,98807.75
2023-01-19T07:43:04.367Z,98781.84
2023-01-19T07:46:08.252Z,98789.47
2023-01-19T07:49:11.689Z,98805.97
2023-01-19T07:52:14.470Z,98783.50
2023-01-19T07:55:16.957Z,98793.69
2023-01-19T07:58:19.391Z,98798.09
2023-01-19T08:01:22.061Z,98802.19
2023-01-19T08:04:25.921Z,98797.25
2023-01-19T08:07:28.472Z,98823.88
2023-01-19T08:10:31.293Z,98830.88
2023-01-19T08:13:33.784Z,98826.72
2023-01-19T08:16:36.861Z,98824.72
2023-01-19T08:19:41.443Z,98805.31
2023-01-19T08:22:47.125Z,98820.97
2023-01-19T08:25:49.505Z,98815.59
2023-01-19T08:28:52.013Z,98813.03
2023-01-19T08:31:55.681Z,98796.13
2023-01-19T08:34:58.399Z,98799.19
2023-01-19T08:38:03.949Z,98832.09
2023-01-19T08:41:06.466Z,98794.19
2023-01-19T08:44:08.886Z,98799.59
2023-01-19T08:47:11.610Z,98809.22
2023-01-19T08:50:14.120Z,98823.06
2023-01-19T08:53:17.474Z,98826.28
2023-01-19T08:56:20.757Z,98789.66
2023-01-19T08:59:23.544Z,98825.66
2023-01-19T09:02:26.137Z,98816.69
2023-01-19T09:05:29.267Z,98850.00
2023-01-19T09:08:32.090Z,98824.81
2023-01-19T09:11:35.079Z,98812.44
2023-01-19T09:14:38.552Z,98838.59
2023-01-19T09:17:44.180Z,98815.34
2023-01-19T09:20:48.750Z,98842.28
2023-01-19T09:23:51.306Z,98805.81
2023-01-19T09:26:53.741Z,98809.22
2023-01-19T09:29:56.225Z,98823.91
2023-01-19T09:33:06.505Z,98834.25
2023-01-19T09:36:09.165Z,98798.13
2023-01-19T09:39:11.687Z,98819.72
2023-01-19T09:42:38.922Z,98856.38
2023-01-19T09:45:57.596Z,98819.84
2023-01-19T09:49:06.814Z,98830.41
2023-01-19T09:52:15.039Z,98852.81
2023-01-19T09:55:22.668Z,98848.44
2023-01-19T09:58:25.081Z,98839.94
2023-01-19T10:02:05.137Z,98848.03
2023-01-19T10:05:46.062Z,98847.31
2023-01-19T10:09:05.314Z,98852.75
2023-01-19T10:12:21.158Z,98819.75
2023-01-19T10:15:42.239Z,98822.69
2023-01-19T10:18:51.725Z,98813.50
2023-01-19T10:21:57.858Z,98800.47
2023-01-19T10:25:06.029Z,98801.53
2023-01-19T10:28:10.795Z,98803.97
2023-01-19T10:31:14.423Z,98802.09
2023-01-19T10:34:23.406Z,98804.59
2023-01-19T10:37:34.170Z,98826.41
2023-01-19T10:40:46.880Z,98816.56
2023-01-19T10:43:50.901Z,98840.75
2023-01-19T10:46:56.925Z,98833.94
2023-01-19T10:49:59.495Z,98802.94
2023-01-19T10:53:05.774Z,98822.53
2023-01-19T10:56:15.636Z,98823.28
2023-01-19T10:59:56.356Z,98838.59
2023-01-19T11:03:00.099Z,98839.88
2023-01-19T11:06:17.648Z,98834.09
2023-01-19T11:09:21.391Z,98827.34
2023-01-19T11:12:24.371Z,98851.63
2023-01-19T11:15:41.056Z,98789.00
2023-01-19T11:18:44.252Z,98826.47
2023-01-19T11:21:46.730Z,98837.81
2023-01-19T11:24:49.856Z,98833.66
2023-01-19T11:27:52.386Z,98826.53
2023-01-19T11:31:03.604Z,98829.38
2023-01-19T11:34:21.858Z,98822.19
2023-01-19T11:37:32.036Z,98805.53
2023-01-19T11:40:35.757Z,98819.84
2023-01-19T11:43:48.639Z,98832.97
2023-01-19T11:47:05.623Z,98821.88
2023-01-19T11:50:21.661Z,98827.50
2023-01-19T11:53:28.295Z,98833.50
2023-01-19T11:56:30.669Z,98800.94
2023-01-19T11:59:33.419Z,98853.19
2023-01-19T12:02:45.732Z,98847.50
2023-01-19T12:05:52.362Z,98852.31
2023-01-19T12:09:19.282Z,98826.81
2023-01-19T12:12:29.865Z,98830.06
2023-01-19T12:15:37.011Z,98863.06
2023-01-19T12:18:47.036Z,98848.13
2023-01-19T12:21:52.495Z,98865.03
2023-01-19T12:25:10.406Z,98864.94
2023-01-19T12:28:15.780Z,98845.97
2023-01-19T12:31:23.401Z,98877.31
2023-01-19T12:34:27.197Z,98876.34
2023-01-19T12:37:41.160Z,98888.22
2023-01-19T12:40:43.584Z,98887.47
2023-01-19T12:43:47.440Z,98862.75
2023-01-19T12:46:50.180Z,98859.75
2023-01-19T12:50:06.882Z,98864.75
2023-01-19T12:53:19.575Z,98896.22
2023-01-19T12:56:31.324Z,98894.94
2023-01-19T12:59:37.319Z,98912.56
2023-01-19T13:02:47.028Z,98918.06
2023-01-19T13:05:56.824Z,98887.22
2023-01-19T13:09:00.865Z,98898.44
2023-01-19T13:12:15.296Z,98914.81
2023-01-19T13:15:35.525Z,98892.78
2023-01-19T13:18:41.668Z,98913.84
2023-01-19T13:21:48.499Z,98925.78
2023-01-19T13:25:13.903Z,98924.97
2023-01-19T13:28:18.790Z,98899.75
2023-01-19T13:31:22.366Z,98938.97
2023-01-19T13:34:27.880Z,98920.16
2023-01-19T13:37:40.012Z,98895.44
2023-01-19T13:40:44.356Z,98907.72
2023-01-19T13:43:48.713Z,98925.41
2023-01-19T13:46:52.571Z,98951.03
2023-01-19T13:49:58.501Z,98946.44
2023-01-19T13:53:02.815Z,98939.03
2023-01-19T13:56:09.645Z,98928.72
2023-01-19T13:59:13.142Z,98965.16
2023-01-19T14:02:15.796Z,98949.69
2023-01-19T14:05:32.643Z,98958.78
2023-01-19T14:08:35.155Z,98929.06
2023-01-19T14:11:37.998Z,98946.78
2023-01-19T14:14:42.760Z,98931.47
2023-01-19T14:17:45.109Z,98952.75
2023-01-19T14:21:07.913Z,98941.41
2023-01-19T14:24:17.206Z,98918.75
2023-01-19T14:27:24.123Z,98960.59
2023-01-19T14:30:26.959Z,98942.16
2023-01-19T14:33:36.636Z,98975.09
2023-01-19T14:36:42.018Z,98955.44
2023-01-19T14:39:46.770Z,98980.22
2023-01-19T14:42:58.552Z,98981.31
2023-01-19T14:46:01.234Z,98965.06
2023-01-19T14:49:06.483Z,98967.00
2023-01-19T14:52:24.206Z,98979.59
2023-01-19T14:55:35.376Z,99014.31
2023-01-19T14:58:37.725Z,98991.47
2023-01-19T15:01:40.779Z,99002.28
2023-01-19T15:04:43.293Z,99017.31
2023-01-19T15:07:46.802Z,98983.53
2023-01-19T15:10:49.269Z,98997.47
2023-01-19T15:13:51.865Z,99028.78
2023-01-19T15:16:54.508Z,99031.50
2023-01-19T15:19:56.961Z,99048.97
2023-01-19T15:22:59.344Z,99027.94
2023-01-19T15:26:03.964Z,99057.09
2023-01-19T15:29:23.591Z,99067.28
2023-01-19T15:32:26.024Z,99040.78
2023-01-19T15:35:28.470Z,99050.81
2023-01-19T15:38:31.085Z,99085.75
2023-01-19T15:41:33.704Z,99067.44
2023-01-19T15:44:36.138Z,99064.47
2023-01-19T15:47:38.511Z,99099.38
2023-01-19T15:50:43.667Z,99081.84
2023-01-19T15:53:46.884Z,99118.78
2023-01-19T15:56:49.390Z,99131.59
2023-01-19T15:59:51.929Z,99125.75
2023-01-19T16:02:54.543Z,99136.81
2023-01-19T16:06:00.542Z,99130.06
2023-01-19T16:09:03.963Z,99105.69
2023-01-19T16:12:07.185Z,99123.09
2023-01-19T16:15:10.580Z,99143.69
2023-01-19T16:18:13.429Z,99149.03
2023-01-19T16:21:15.966Z,99125.38
2023-01-19T16:24:18.416Z,99099.72
2023-01-19T16:27:20.767Z,99130.56
2023-01-19T16:30:23.372Z,99144.34
2023-01-19T16:33:25.878Z,99149.88
2023-01-19T16:36:31.521Z,99164.28
2023-01-19T16:39:34.246Z,99167.63
2023-01-19T16:42:36.676Z,99154.38
2023-01-19T16:46:01.175Z,99157.66
2023-01-19T16:49:14.791Z,99159.13
2023-01-19T16:52:17.297Z,99200.72
2023-01-19T16:55:19.640Z,99211.25
2023-01-19T16:58:22.273Z,99238.81
2023-01-19T17:01:27.412Z,99188.34
2023-01-19T17:04:30.077Z,99223.44
2023-01-19T17:07:32.491Z,99242.31
2023-01-19T17:10:40.013Z,99252.00
2023-01-19T17:13:42.596Z,99249.44
2023-01-19T17:16:45.078Z,99247.91
2023-01-19T17:19:48.008Z,99240.16
2023-01-19T17:22:50.492Z,99223.97
2023-01-19T17:25:54.392Z,99190.00
2023-01-19T17:29:08.505Z,99191.72
2023-01-19T17:32:11.055Z,99250.56
2023-01-19T17:35:13.423Z,99264.00
2023-01-19T17:38:16.547Z,99240.31
2023-01-19T17:41:22.012Z,99266.50
2023-01-19T17:44:24.770Z,99271.09
2023-01-19T17:47:27.339Z,99279.00
2023-01-19T17:50:31.527Z,99289.34
2023-01-19T17:53:35.910Z,99292.25
2023-01-19T17:56:39.493Z,99317.13
2023-01-19T17:59:43.798Z,99300.41
2023-01-19T18:02:49.934Z,99300.91
2023-01-19T18:05:54.589Z,99326.56
2023-01-19T18:08:58.300Z,99306.75
2023-01-19T18:12:00.800Z,99313.59
2023-01-19T18:15:05.209Z,99338.16
2023-01-19T18:18:07.545Z,99325.25
2023-01-19T18:21:13.435Z,99362.75
2023-01-19T18:24:15.995Z,99331.44
2023-01-19T18:27:18.827Z,99324.69
2023-01-19T18:30:22.477Z,99345.25
2023-01-19T18:36:28.600Z,99363.94
2023-01-19T18:39:31.267Z,99345.38
2023-01-19T18:42:34.001Z,99338.72
2023-01-19T18:45:39.778Z,99378.44
2023-01-19T18:48:42.553Z,99373.44
2023-01-19T18:51:45.562Z,99393.63
2023-01-19T18:54:48.671Z,99388.88
2023-01-19T18:57:51.618Z,99403.53
2023-01-19T19:00:54.271Z,99383.34
2023-01-19T19:03:57.327Z,99367.00
2023-01-19T19:06:59.965Z,99398.53
2023-01-19T19:10:02.361Z,99373.84
2023-01-19T19:13:05.009Z,99391.38
2023-01-19T19:16:09.415Z,99390.34
2023-01-19T19:19:15.353Z,99373.81
2023-01-19T19:22:18.008Z,99367.94
2023-01-19T19:25:20.613Z,99361.97
2023-01-19T19:28:23.317Z,99395.56
2023-01-19T19:31:27.539Z,99411.59
2023-01-19T19:34:30.201Z,99417.56
2023-01-19T19:37:32.880Z,99435.22
2023-01-19T19:40:35.484Z,99407.25
2023-01-19T19:43:38.670Z,99439.53
2023-01-19T19:46:41.460Z,99417.09
2023-01-19T19:49:44.056Z,99456.00
2023-01-19T19:52:46.791Z,99444.16
2023-01-19T19:55:57.132Z,99467.31
2023-01-19T19:59:00.175Z,99469.81
2023-01-19T20:02:03.107Z,99438.63
2023-01-19T20:05:05.937Z,99474.38
2023-01-19T20:08:09.060Z,99492.00
2023-01-19T20:11:14.300Z,99491.63
2023-01-19T20:14:16.771Z,99483.69
2023-01-19T20:17:20.767Z,99505.50
2023-01-19T20:20:24.145Z,99498.81
2023-01-19T20:23:26.855Z,99506.22
2023-01-19T20:26:33.196Z,99477.28
2023-01-19T20:29:36.089Z,99468.78
2023-01-19T20:32:41.276Z,99478.28
2023-01-19T20:35:43.836Z,99514.16
2023-01-19T20:38:46.262Z,99496.59
2023-01-19T20:41:51.237Z,99488.09
2023-01-19T20:44:55.629Z,99519.13
2023-01-19T20:47:58.265Z,99520.56
2023-01-19T20:51:10.546Z,99516.69
2023-01-19T20:54:15.453Z,99530.38
2023-01-19T20:57:18.109Z,99501.94
2023-01-19T21:00:21.085Z,99512.25
2023-01-19T21:03:27.072Z,99528.81
2023-01-19T21:06:29.854Z,99543.31
2023-01-19T21:09:32.554Z,99523.88
2023-01-19T21:12:35.216Z,99527.66
2023-01-19T21:15:37.561Z,99564.97
2023-01-19T21:18:39.910Z,99511.75
2023-01-19T21:21:42.420Z,99569.69
2023-01-19T21:24:44.874Z,99569.47
2023-01-19T21:27:47.235Z,99558.41
2023-01-19T21:30:50.382Z,99603.38
2023-01-19T21:33:53.981Z,99618.03
2023-01-19T21:36:56.290Z,99601.31
2023-01-19T21:39:58.945Z,99612.69
2023-01-19T21:43:01.431Z,99625.63
2023-01-19T21:46:14.442Z,99666.06
2023-01-19T21:49:18.839Z,99635.66
2023-01-19T21:52:21.297Z,99623.50
2023-01-19T21:55:24.021Z,99642.31
2023-01-19T21:58:27.030Z,99659.03
2023-01-19T22:01:29.599Z,99657.13
2023-01-19T22:04:32.086Z,99631.16
2023-01-19T22:07:34.429Z,99656.94
2023-01-19T22:10:37.570Z,99630.88
2023-01-19T22:13:40.855Z,99658.44
2023-01-19T22:16:43.220Z,99621.13
2023-01-19T22:19:45.748Z,99625.28
2023-01-19T22:22:48.453Z,99636.25
2023-01-19T22:25:50.899Z,99622.03
2023-01-19T22:28:55.892Z,99629.44
2023-01-19T22:31:58.308Z,99626.03
2023-01-19T22:35:03.955Z,99654.59
2023-01-19T22:38:06.349Z,99641.16
2023-01-19T22:41:21.396Z,99641.16
2023-01-19T22:44:24.149Z,99624.38
2023-01-19T22:47:26.484Z,99648.16
2023-01-19T22:50:28.829Z,99672.25
2023-01-19T22:53:32.026Z,99681.84
2023-01-19T22:56:35.999Z,99661.66
2023-01-19T22:59:38.338Z,99686.00
2023-01-19T23:02:40.767Z,99648.13
2023-01-19T23:05:43.150Z,99653.75
2023-01-19T23:08:45.641Z,99620.78
2023-01-19T23:11:50.597Z,99646.88
2023-01-19T23:14:53.076Z,99637.66
2023-01-19T23:17:55.407Z,99612.19
2023-01-19T23:21:12.773Z,99616.22
2023-01-19T23:24:15.098Z,99625.75
2023-01-19T23:27:17.482Z,99590.53
2023-01-19T23:30:19.964Z,99642.09
2023-01-19T23:33:22.925Z,99642.00
2023-01-19T23:36:27.287Z,99650.88
2023-01-19T23:39:30.057Z,99653.44
2023-01-19T23:42:32.405Z,99655.22
2023-01-19T23:45:35.660Z,99663.81
2023-01-19T23:48:38.308Z,99671.97
2023-01-19T23:51:41.133Z,99641.72
2023-01-19T23:54:44.765Z,99642.63
2023-01-19T23:57:47.171Z,99655.06
